Time;durP1;ratioP1;P1;durP2;ratioP2;P2;SDS_P1;SDS_P2;PMS_P1;PMS_P2;Temp;Humidity;BMP_temperature;BMP_pressure;BME280_temperature;BME280_humidity;BME280_pressure;Samples;Min_cycle;Max_cycle;Signal;HPM_P1;HPM_P2
2023/09/27 00:01:52;;;;;;;12.83;4.70;;;;;;;18.59;82.83;95534.50;5064323;28;20245;-74
2023/09/27 00:04:18;;;;;;;14.60;4.90;;;;;;;18.39;83.98;95530.59;5057899;28;20225;-74
2023/09/27 00:06:44;;;;;;;16.40;4.90;;;;;;;18.41;84.13;95528.50;5087517;28;20224;-74
2023/09/27 00:09:09;;;;;;;12.90;4.43;;;;;;;18.40;83.75;95533.00;5038640;28;20220;-74
2023/09/27 00:11:35;;;;;;;14.57;5.00;;;;;;;18.34;84.14;95525.97;5063747;28;20239;-74
2023/09/27 00:14:00;;;;;;;10.83;4.33;;;;;;;18.56;83.16;95523.53;5071018;28;20270;-74
2023/09/27 00:16:27;;;;;;;15.87;4.50;;;;;;;18.53;83.48;95526.69;5058347;28;20222;-75
2023/09/27 00:18:53;;;;;;;10.83;4.80;;;;;;;18.47;83.85;95519.66;5045113;28;20913;-75
2023/09/27 00:21:18;;;;;;;13.83;4.90;;;;;;;18.40;83.88;95516.28;5060072;28;20232;-74
2023/09/27 00:23:44;;;;;;;13.80;4.73;;;;;;;18.32;84.40;95517.44;5049639;28;20225;-74
2023/09/27 00:26:09;;;;;;;19.87;4.83;;;;;;;18.48;83.26;95510.66;5063659;28;20350;-75
2023/09/27 00:28:35;;;;;;;20.27;4.90;;;;;;;18.31;84.13;95505.25;5069415;28;20237;-74
2023/09/27 00:31:00;;;;;;;15.47;4.90;;;;;;;18.32;84.50;95506.84;5040455;28;20394;-75
2023/09/27 00:33:25;;;;;;;14.63;4.83;;;;;;;18.45;84.12;95503.94;5067483;28;20259;-74
2023/09/27 00:35:51;;;;;;;18.17;5.17;;;;;;;18.15;84.76;95495.34;5057688;28;20257;-75
2023/09/27 00:38:16;;;;;;;14.57;4.47;;;;;;;18.03;85.69;95500.66;5064312;28;20307;-74
2023/09/27 00:40:48;;;;;;;15.90;5.07;;;;;;;18.01;86.34;95500.06;5053821;28;20208;-74
2023/09/27 00:43:29;;;;;;;13.43;4.67;;;;;;;17.91;87.25;95499.84;5036453;28;20742;-75
2023/09/27 00:46:02;;;;;;;15.50;4.80;;;;;;;17.86;87.97;95501.59;5064540;28;20240;-75
2023/09/27 00:48:28;;;;;;;14.93;4.40;;;;;;;17.98;87.27;95502.41;5071213;28;20273;-74
2023/09/27 00:50:54;;;;;;;16.13;4.93;;;;;;;18.04;86.92;95509.41;5051054;28;20651;-74
2023/09/27 00:53:21;;;;;;;15.67;4.47;;;;;;;18.07;86.37;95503.66;5066102;28;20848;-75
2023/09/27 00:55:46;;;;;;;14.47;5.00;;;;;;;18.10;85.39;95503.19;5046015;28;20367;-74
2023/09/27 00:58:14;;;;;;;14.90;4.73;;;;;;;18.05;84.43;95509.19;5064631;28;20240;-74
2023/09/27 01:00:39;;;;;;;22.07;5.10;;;;;;;18.06;85.06;95494.06;5059648;28;20228;-75
2023/09/27 01:03:06;;;;;;;15.40;4.87;;;;;;;18.06;84.80;95502.84;5064626;28;20591;-74
2023/09/27 01:05:31;;;;;;;14.90;4.80;;;;;;;17.95;85.54;95511.59;5070220;28;20220;-75
2023/09/27 01:07:57;;;;;;;12.63;5.13;;;;;;;17.95;85.95;95511.59;5064890;28;20237;-74
2023/09/27 01:10:22;;;;;;;14.60;4.83;;;;;;;18.08;85.31;95508.72;5037736;28;20224;-75
2023/09/27 01:12:48;;;;;;;15.20;4.70;;;;;;;18.03;84.53;95505.94;5056439;28;20230;-75
2023/09/27 01:15:13;;;;;;;16.10;5.03;;;;;;;18.02;85.08;95501.69;5044705;28;20253;-74
2023/09/27 01:17:52;;;;;;;16.07;4.70;;;;;;;17.85;85.25;95507.91;5061332;28;20240;-75
2023/09/27 01:20:18;;;;;;;14.33;4.87;;;;;;;17.74;86.32;95508.72;5065316;28;20229;-75
2023/09/27 01:22:43;;;;;;;14.03;5.07;;;;;;;17.81;85.85;95507.56;5059482;28;20233;-75
2023/09/27 01:25:09;;;;;;;13.73;4.83;;;;;;;17.70;86.56;95510.19;5054954;28;20288;-74
2023/09/27 01:27:35;;;;;;;14.27;5.00;;;;;;;17.72;86.46;95505.50;5021048;28;20221;-74
2023/09/27 01:30:00;;;;;;;13.13;5.13;;;;;;;17.75;86.02;95502.38;5060654;28;20741;-75
2023/09/27 01:32:26;;;;;;;12.70;4.80;;;;;;;17.92;85.48;95503.31;5031868;28;20220;-74
2023/09/27 01:34:52;;;;;;;14.37;4.83;;;;;;;17.95;85.25;95501.00;5043388;28;20262;-74
2023/09/27 01:37:17;;;;;;;13.90;4.73;;;;;;;17.64;86.75;95500.53;5041181;28;20608;-74
2023/09/27 01:39:43;;;;;;;15.97;5.00;;;;;;;17.69;86.13;95508.59;5061071;28;20236;-75
2023/09/27 01:42:10;;;;;;;13.13;4.67;;;;;;;17.81;86.20;95506.75;5064222;28;20216;-75
2023/09/27 01:44:36;;;;;;;13.40;4.53;;;;;;;17.73;86.54;95509.75;5032808;28;20225;-75
2023/09/27 01:47:01;;;;;;;12.83;4.83;;;;;;;17.57;87.09;95511.22;5052362;28;20223;-75
2023/09/27 01:49:27;;;;;;;11.93;4.63;;;;;;;17.41;87.85;95509.22;5069656;28;20658;-75
2023/09/27 01:51:52;;;;;;;15.97;5.20;;;;;;;17.40;87.83;95500.47;5062624;28;20236;-74
2023/09/27 01:54:18;;;;;;;13.30;5.00;;;;;;;17.31;88.48;95501.03;5050816;28;21207;-75
2023/09/27 01:56:44;;;;;;;17.00;5.07;;;;;;;17.33;88.26;95491.00;5049896;28;20671;-75
2023/09/27 01:59:09;;;;;;;11.23;4.63;;;;;;;17.26;88.72;95492.94;5065755;28;20260;-75
2023/09/27 02:01:35;;;;;;;14.97;4.70;;;;;;;17.29;89.32;95501.22;5052407;28;20233;-75
2023/09/27 02:04:00;;;;;;;18.63;4.80;;;;;;;17.30;88.81;95497.56;5047333;28;20796;-75
2023/09/27 02:06:25;;;;;;;16.30;4.83;;;;;;;17.30;89.16;95496.75;5059430;28;20270;-75
2023/09/27 02:08:51;;;;;;;17.03;5.30;;;;;;;17.15;89.69;95499.81;5070313;28;20663;-75
2023/09/27 02:11:19;;;;;;;12.43;4.73;;;;;;;17.01;90.41;95501.03;5064715;28;20237;-75
2023/09/27 02:13:44;;;;;;;16.07;4.80;;;;;;;17.17;89.26;95497.75;5065729;28;20240;-75
2023/09/27 02:16:10;;;;;;;11.93;5.00;;;;;;;17.28;89.01;95510.22;5067158;28;20285;-75
2023/09/27 02:18:35;;;;;;;12.10;4.83;;;;;;;17.32;88.85;95499.97;5043403;28;20233;-75
2023/09/27 02:21:01;;;;;;;13.53;4.87;;;;;;;17.13;89.45;95499.25;5063800;28;20281;-75
2023/09/27 02:23:28;;;;;;;12.37;5.03;;;;;;;16.99;90.11;95503.09;5047662;28;20236;-75
2023/09/27 02:25:57;;;;;;;13.00;5.00;;;;;;;17.26;89.45;95499.06;5032996;28;20228;-75
2023/09/27 02:28:23;;;;;;;13.37;4.80;;;;;;;17.28;89.30;95499.63;5068847;28;20646;-75
2023/09/27 02:30:49;;;;;;;12.20;4.83;;;;;;;16.99;89.54;95497.00;5066298;28;20249;-74
2023/09/27 02:33:15;;;;;;;13.97;5.10;;;;;;;16.98;90.01;95501.47;5042133;28;20241;-74
2023/09/27 02:35:41;;;;;;;13.20;5.07;;;;;;;17.07;89.75;95504.63;5065861;28;20783;-75
2023/09/27 02:38:07;;;;;;;16.50;5.10;;;;;;;17.03;89.93;95504.25;5047465;28;20228;-75
2023/09/27 02:40:32;;;;;;;12.97;4.90;;;;;;;17.01;90.41;95501.03;5060704;28;20226;-75
2023/09/27 02:42:58;;;;;;;16.17;5.17;;;;;;;17.09;90.29;95503.38;5066050;28;20228;-75
2023/09/27 02:45:24;;;;;;;15.87;5.20;;;;;;;16.81;90.95;95505.81;5047243;28;20232;-74
2023/09/27 02:47:49;;;;;;;15.23;5.40;;;;;;;16.45;92.79;95508.44;5063735;28;20851;-75
2023/09/27 02:50:15;;;;;;;13.30;5.37;;;;;;;16.81;91.89;95505.81;5065775;28;20232;-75
2023/09/27 02:52:40;;;;;;;15.00;5.30;;;;;;;16.91;91.19;95511.34;5058470;28;20707;-75
2023/09/27 02:55:10;;;;;;;15.07;5.13;;;;;;;16.95;90.88;95517.00;5073836;28;21047;-75
2023/09/27 02:57:36;;;;;;;13.37;5.10;;;;;;;16.94;91.04;95510.91;5070109;28;20221;-75
2023/09/27 03:00:03;;;;;;;15.70;5.03;;;;;;;16.84;91.18;95510.63;5034151;28;20233;-74
2023/09/27 03:02:31;;;;;;;10.73;5.20;;;;;;;16.86;91.39;95503.25;5067161;28;20312;-74
2023/09/27 03:04:58;;;;;;;18.80;5.37;;;;;;;16.99;90.81;95513.69;5067092;28;20311;-75
2023/09/27 03:07:23;;;;;;;15.10;5.20;;;;;;;16.72;92.21;95515.03;5044211;28;20245;-74
2023/09/27 03:09:49;;;;;;;14.47;5.27;;;;;;;16.44;92.73;95517.41;5048995;28;20224;-74
2023/09/27 03:12:14;;;;;;;15.50;5.30;;;;;;;16.40;93.67;95519.69;5050335;28;20227;-74
2023/09/27 03:14:40;;;;;;;12.73;5.00;;;;;;;16.66;93.25;95529.16;5075956;28;20229;-75
2023/09/27 03:17:05;;;;;;;12.50;5.43;;;;;;;16.61;92.96;95521.91;5070775;28;20220;-74
2023/09/27 03:19:31;;;;;;;14.47;5.40;;;;;;;16.58;93.44;95518.88;5075108;28;20299;-75
2023/09/27 03:21:56;;;;;;;13.17;5.00;;;;;;;16.72;92.84;95518.50;5068491;28;20224;-74
2023/09/27 03:24:22;;;;;;;14.40;5.30;;;;;;;16.55;93.56;95517.50;5047422;28;20285;-74
2023/09/27 03:26:47;;;;;;;12.47;5.43;;;;;;;16.29;94.26;95516.97;5062619;28;20282;-75
2023/09/27 03:29:13;;;;;;;13.57;5.33;;;;;;;16.45;94.00;95521.66;5050086;28;20320;-74
2023/09/27 03:31:39;;;;;;;13.93;5.50;;;;;;;16.28;94.45;95521.44;5069433;28;20701;-75
2023/09/27 03:34:05;;;;;;;14.07;5.20;;;;;;;16.38;94.46;95527.03;5068979;28;20229;-75
2023/09/27 03:36:30;;;;;;;14.63;5.70;;;;;;;16.50;93.59;95525.25;5035459;28;20235;-75
2023/09/27 03:38:56;;;;;;;17.83;5.80;;;;;;;16.32;94.02;95527.09;5046847;28;20232;-74
2023/09/27 03:41:21;;;;;;;18.87;6.10;;;;;;;16.36;93.91;95523.78;5066271;28;20225;-75
2023/09/27 03:43:47;;;;;;;14.93;6.20;;;;;;;16.15;95.26;95529.50;5051141;28;20370;-74
2023/09/27 03:46:13;;;;;;;17.07;6.07;;;;;;;15.89;96.23;95533.19;5057404;28;20224;-75
2023/09/27 03:48:38;;;;;;;14.53;5.73;;;;;;;16.26;94.95;95534.06;5050110;28;21051;-75
2023/09/27 03:51:04;;;;;;;16.77;6.10;;;;;;;16.30;94.24;95534.41;5045728;28;20731;-75
2023/09/27 03:53:31;;;;;;;16.83;6.27;;;;;;;16.16;94.91;95533.75;5062529;28;20261;-75
2023/09/27 03:55:56;;;;;;;17.43;6.27;;;;;;;16.39;94.01;95533.09;5063533;28;20251;-74
2023/09/27 03:58:22;;;;;;;18.90;7.00;;;;;;;16.45;94.01;95542.81;5062458;28;20249;-74
2023/09/27 04:00:47;;;;;;;21.97;6.90;;;;;;;16.40;93.75;95538.19;5029139;28;20306;-75
2023/09/27 04:03:13;;;;;;;21.70;6.80;;;;;;;16.57;93.69;95536.59;5073563;28;20752;-75
2023/09/27 04:05:38;;;;;;;17.67;6.83;;;;;;;16.52;93.86;95538.28;5062211;28;20236;-74
2023/09/27 04:08:04;;;;;;;17.57;6.70;;;;;;;16.19;95.10;95543.91;5058705;28;20225;-74
2023/09/27 04:10:31;;;;;;;20.23;6.73;;;;;;;16.33;94.81;95539.28;5048278;28;20630;-75
2023/09/27 04:12:57;;;;;;;21.40;7.07;;;;;;;16.37;94.07;95540.44;5043782;28;20319;-75
2023/09/27 04:15:22;;;;;;;18.83;6.90;;;;;;;16.32;94.52;95543.75;5059505;28;20304;-75
2023/09/27 04:17:48;;;;;;;17.10;7.13;;;;;;;16.29;94.70;95546.03;5053400;28;20229;-75
2023/09/27 04:20:18;;;;;;;19.93;7.30;;;;;;;16.11;95.35;95539.69;5059424;28;20229;-75
2023/09/27 04:22:44;;;;;;;20.03;9.10;;;;;;;16.42;93.94;95543.22;5060491;28;20238;-75
2023/09/27 04:25:12;;;;;;;18.67;8.13;;;;;;;16.55;93.82;95543.13;5067057;28;20277;-75
2023/09/27 04:27:39;;;;;;;21.70;7.73;;;;;;;16.56;93.91;95539.44;5053089;28;20242;-75
2023/09/27 04:30:07;;;;;;;16.13;7.00;;;;;;;16.04;96.08;95546.06;5065526;28;20319;-75
2023/09/27 04:32:33;;;;;;;23.10;7.60;;;;;;;16.27;95.54;95540.13;5059614;28;20252;-75
2023/09/27 04:34:59;;;;;;;24.07;7.50;;;;;;;16.37;95.03;95546.53;5053347;28;20368;-76
2023/09/27 04:37:24;;;;;;;20.63;7.20;;;;;;;16.30;95.10;95553.72;5053917;28;20255;-75
2023/09/27 04:39:50;;;;;;;16.97;7.47;;;;;;;16.03;96.12;95550.53;5087499;28;20236;-76
2023/09/27 04:42:15;;;;;;;20.10;7.07;;;;;;;16.19;95.26;95549.97;5049363;28;20245;-75
2023/09/27 04:44:41;;;;;;;19.30;6.77;;;;;;;16.30;94.51;95552.91;5071399;28;20246;-76
2023/09/27 04:47:06;;;;;;;19.70;6.87;;;;;;;16.34;94.27;95552.25;5049345;28;20235;-76
2023/09/27 04:49:32;;;;;;;16.10;6.70;;;;;;;16.36;94.35;95557.34;5074788;28;20224;-75
2023/09/27 04:51:57;;;;;;;17.90;7.00;;;;;;;16.39;93.88;95556.88;5063619;28;20220;-75
2023/09/27 04:54:22;;;;;;;20.37;6.93;;;;;;;16.54;93.36;95552.06;5056963;28;20320;-76
2023/09/27 04:56:48;;;;;;;15.83;6.50;;;;;;;16.58;93.03;95553.25;5040384;28;20332;-74
2023/09/27 04:59:13;;;;;;;18.80;6.97;;;;;;;16.52;93.35;95564.72;5084154;28;20235;-74
2023/09/27 05:01:39;;;;;;;19.23;6.67;;;;;;;16.54;92.80;95557.38;5038613;28;20866;-74
2023/09/27 05:04:04;;;;;;;16.63;7.03;;;;;;;16.41;93.27;95565.38;5084731;28;20252;-74
2023/09/27 05:06:30;;;;;;;17.00;6.67;;;;;;;16.43;92.80;95564.16;5084915;28;20729;-74
2023/09/27 05:08:55;;;;;;;16.97;6.83;;;;;;;16.73;91.58;95564.25;5080213;28;20239;-74
2023/09/27 05:11:22;;;;;;;21.63;6.63;;;;;;;16.75;91.57;95563.00;5074280;28;20223;-76
2023/09/27 05:13:47;;;;;;;14.87;6.80;;;;;;;16.84;91.69;95569.59;5073691;28;20236;-73
2023/09/27 05:16:13;;;;;;;17.30;6.50;;;;;;;16.89;91.47;95561.00;5071355;28;20288;-74
2023/09/27 05:18:40;;;;;;;18.47;6.33;;;;;;;16.90;90.74;95562.63;5059134;28;20228;-74
2023/09/27 05:21:06;;;;;;;20.70;6.57;;;;;;;16.97;90.66;95562.53;5072082;28;20751;-79
2023/09/27 05:23:31;;;;;;;18.57;6.57;;;;;;;16.96;90.51;95561.72;5044878;28;20292;-78
2023/09/27 05:25:57;;;;;;;17.73;6.43;;;;;;;17.07;90.17;95562.81;5088876;28;20653;-79
2023/09/27 05:28:23;;;;;;;16.73;6.23;;;;;;;17.15;90.29;95559.84;5046811;28;20294;-79
2023/09/27 05:30:49;;;;;;;18.97;6.57;;;;;;;17.04;89.77;95563.25;5072404;28;20227;-79
2023/09/27 05:33:14;;;;;;;18.23;6.40;;;;;;;17.06;89.82;95562.00;5038200;28;20231;-79
2023/09/27 05:35:40;;;;;;;16.63;6.40;;;;;;;17.07;89.58;95562.81;5050735;28;20230;-79
2023/09/27 05:38:06;;;;;;;20.90;6.37;;;;;;;17.02;90.37;95565.31;5074269;28;20281;-80
2023/09/27 05:40:31;;;;;;;16.70;6.40;;;;;;;17.12;90.85;95566.41;5052712;28;20281;-79
2023/09/27 05:42:57;;;;;;;23.33;6.40;;;;;;;17.12;90.76;95561.13;5040967;28;20235;-79
2023/09/27 05:45:22;;;;;;;20.60;5.93;;;;;;;17.35;89.67;95569.16;5042671;28;20232;-77
2023/09/27 05:47:48;;;;;;;16.27;5.70;;;;;;;17.38;89.60;95574.00;5043308;28;20237;-79
2023/09/27 05:50:13;;;;;;;20.73;6.70;;;;;;;17.45;89.82;95572.06;5038219;28;20763;-79
2023/09/27 05:52:43;;;;;;;20.03;6.70;;;;;;;17.50;89.85;95571.38;5069761;28;20228;-79
2023/09/27 05:55:08;;;;;;;21.27;6.33;;;;;;;17.78;86.59;95571.59;5040452;28;20250;-79
2023/09/27 05:57:34;;;;;;;18.50;6.30;;;;;;;17.91;86.49;95575.88;5059384;28;20232;-76
2023/09/27 06:00:00;;;;;;;17.27;6.47;;;;;;;17.97;86.96;95574.94;5048849;28;20682;-79
2023/09/27 06:02:30;;;;;;;22.43;6.77;;;;;;;18.12;85.29;95576.13;5055516;28;20298;-78
2023/09/27 06:04:56;;;;;;;15.63;6.10;;;;;;;18.15;83.53;95574.81;5069755;28;20232;-79
2023/09/27 06:07:22;;;;;;;13.23;5.77;;;;;;;18.29;83.44;95575.41;5044699;28;20220;-78
2023/09/27 06:09:48;;;;;;;14.17;5.90;;;;;;;18.40;81.05;95577.25;5061658;28;20841;-79
2023/09/27 06:12:14;;;;;;;14.87;6.10;;;;;;;18.58;80.54;95585.91;5047171;28;20258;-78
2023/09/27 06:14:42;;;;;;;15.07;5.73;;;;;;;18.63;80.59;95585.19;5051123;28;20592;-79
2023/09/27 06:17:07;;;;;;;13.87;5.63;;;;;;;18.71;79.39;95582.19;5040312;28;20637;-78
2023/09/27 06:19:33;;;;;;;14.10;5.47;;;;;;;18.66;79.60;95585.56;5065359;28;20208;-76
2023/09/27 06:21:58;;;;;;;13.90;5.67;;;;;;;18.73;80.31;95585.41;5068370;28;20227;-79
2023/09/27 06:24:26;;;;;;;21.03;5.60;;;;;;;18.86;79.38;95594.97;5067115;28;20355;-78
2023/09/27 06:26:52;;;;;;;20.73;6.40;;;;;;;18.90;79.08;95588.16;5071268;28;20262;-79
2023/09/27 06:29:19;;;;;;;16.73;5.27;;;;;;;18.86;78.00;95600.28;5074370;28;20227;-78
2023/09/27 06:31:46;;;;;;;13.87;5.47;;;;;;;18.96;78.10;95600.50;5062250;28;20765;-79
2023/09/27 06:34:14;;;;;;;18.17;5.20;;;;;;;19.02;78.12;95602.19;5070307;28;20289;-79
2023/09/27 06:36:42;;;;;;;18.40;5.27;;;;;;;19.11;76.57;95606.09;5031531;28;20231;-78
2023/09/27 06:39:12;;;;;;;16.67;5.60;;;;;;;19.19;76.86;95608.38;5076035;28;20236;-79
2023/09/27 06:41:39;;;;;;;10.20;4.90;;;;;;;19.19;77.05;95605.72;5069164;28;20247;-78
2023/09/27 06:44:06;;;;;;;15.60;5.43;;;;;;;19.23;77.25;95601.56;5063054;28;20232;-79
2023/09/27 06:46:32;;;;;;;12.83;5.80;;;;;;;19.19;77.63;95606.53;5043331;28;21151;-79
2023/09/27 06:48:59;;;;;;;15.80;5.77;;;;;;;19.22;77.47;95600.78;5070663;28;20820;-75
2023/09/27 06:51:24;;;;;;;16.50;5.47;;;;;;;19.34;76.39;95606.03;5057114;28;20224;-79
2023/09/27 06:53:50;;;;;;;15.30;5.53;;;;;;;19.37;76.63;95609.03;5054949;28;20245;-78
2023/09/27 06:56:15;;;;;;;25.40;5.93;;;;;;;19.43;76.50;95599.31;5044329;28;20229;-78
2023/09/27 06:58:41;;;;;;;16.87;5.37;;;;;;;19.49;76.04;95611.63;5056300;28;20237;-78
2023/09/27 07:01:07;;;;;;;14.23;5.40;;;;;;;19.52;75.02;95611.16;5049840;28;20714;-79
2023/09/27 07:03:34;;;;;;;15.77;5.03;;;;;;;19.48;75.68;95616.16;5060059;28;20243;-78
2023/09/27 07:06:01;;;;;;;16.43;5.37;;;;;;;19.62;76.88;95615.88;5082164;28;20225;-79
2023/09/27 07:08:27;;;;;;;15.97;5.20;;;;;;;19.64;76.02;95609.28;5035397;28;20297;-79
2023/09/27 07:10:52;;;;;;;18.33;5.73;;;;;;;19.69;76.13;95612.03;5074517;28;20227;-79
2023/09/27 07:13:18;;;;;;;18.90;5.47;;;;;;;19.71;75.72;95612.59;5073746;28;20294;-78
2023/09/27 07:15:47;;;;;;;22.07;5.77;;;;;;;19.86;75.21;95612.03;5074712;28;20232;-78
2023/09/27 07:18:13;;;;;;;12.57;5.30;;;;;;;19.95;75.04;95615.91;5045673;28;20231;-78
2023/09/27 07:20:40;;;;;;;16.00;5.30;;;;;;;19.98;74.39;95616.25;5067561;28;20227;-78
2023/09/27 07:23:07;;;;;;;16.43;5.33;;;;;;;20.08;74.08;95611.06;5033913;28;20237;-78
2023/09/27 07:25:37;;;;;;;19.53;5.00;;;;;;;20.14;73.04;95617.28;5020358;28;20682;-78
2023/09/27 07:28:04;;;;;;;15.30;4.83;;;;;;;20.21;72.68;95620.59;5034437;28;20297;-79
2023/09/27 07:30:34;;;;;;;14.03;4.90;;;;;;;20.21;71.92;95617.13;5020693;28;20247;-79
2023/09/27 07:33:03;;;;;;;16.67;5.47;;;;;;;20.27;72.43;95617.00;5067739;28;20224;-78
2023/09/27 07:35:33;;;;;;;18.43;5.47;;;;;;;20.44;71.91;95611.69;5047157;28;20224;-79
2023/09/27 07:37:58;;;;;;;17.83;4.90;;;;;;;20.54;71.95;95609.19;5037683;28;20255;-79
2023/09/27 07:40:24;;;;;;;15.93;4.70;;;;;;;20.63;70.50;95613.03;5038777;28;20316;-78
2023/09/27 07:42:51;;;;;;;14.83;4.50;;;;;;;20.73;69.94;95618.47;5037305;28;20229;-79
2023/09/27 07:45:30;;;;;;;13.00;4.87;;;;;;;20.82;69.84;95617.00;5053240;28;20304;-78
2023/09/27 07:47:55;;;;;;;14.97;4.40;;;;;;;20.81;69.69;95610.06;5054273;28;20961;-80
2023/09/27 07:50:28;;;;;;;11.03;4.47;;;;;;;20.81;69.32;95602.09;5056018;28;20230;-79
2023/09/27 07:52:57;;;;;;;18.70;5.20;;;;;;;20.82;69.55;95601.81;5040608;28;20372;-79
2023/09/27 07:55:22;;;;;;;15.50;4.50;;;;;;;20.87;68.45;95603.78;5066294;28;20265;-79
2023/09/27 07:57:49;;;;;;;24.27;5.00;;;;;;;20.96;69.14;95602.28;5070399;28;20233;-79
2023/09/27 08:00:19;;;;;;;13.60;4.83;;;;;;;20.88;69.53;95605.38;5070821;28;20233;-78
2023/09/27 08:02:45;;;;;;;13.07;4.70;;;;;;;20.83;70.11;95589.34;5057508;28;20224;-79
2023/09/27 08:05:11;;;;;;;12.60;4.83;;;;;;;20.78;69.05;95594.59;5052028;28;20229;-79
2023/09/27 08:07:40;;;;;;;18.17;4.90;;;;;;;20.60;70.63;95600.19;5055536;28;20221;-78
2023/09/27 08:10:06;;;;;;;15.27;4.60;;;;;;;20.63;69.88;95599.72;5056606;28;20289;-79
2023/09/27 08:12:35;;;;;;;12.93;4.70;;;;;;;20.67;69.40;95593.66;5053681;28;20279;-78
2023/09/27 08:15:00;;;;;;;12.70;4.37;;;;;;;20.62;68.05;95601.56;5043981;28;20252;-79
2023/09/27 08:17:26;;;;;;;16.50;4.70;;;;;;;20.71;67.95;95592.13;5054346;28;20618;-79
2023/09/27 08:19:52;;;;;;;18.33;4.70;;;;;;;20.93;67.05;95593.97;5039319;28;20228;-80
2023/09/27 08:22:17;;;;;;;12.83;4.37;;;;;;;21.11;65.95;95601.72;5056086;28;20289;-77
2023/09/27 08:24:43;;;;;;;15.23;4.43;;;;;;;21.11;65.65;95597.16;5050238;28;20232;-79
2023/09/27 08:27:08;;;;;;;19.23;4.83;;;;;;;21.18;66.63;95597.81;5056528;28;20235;-79
2023/09/27 08:29:34;;;;;;;12.90;5.00;;;;;;;21.24;66.86;95599.47;5050552;28;20226;-78
2023/09/27 08:32:00;;;;;;;12.07;4.60;;;;;;;21.27;65.96;95598.97;5049887;28;20320;-79
2023/09/27 08:34:26;;;;;;;15.57;4.70;;;;;;;21.18;66.15;95600.47;5068315;28;20656;-79
2023/09/27 08:36:52;;;;;;;17.43;5.20;;;;;;;21.09;67.17;95595.84;5067089;28;20221;-79
2023/09/27 08:39:18;;;;;;;12.90;4.60;;;;;;;21.18;66.92;95594.34;5064930;28;20239;-78
2023/09/27 08:41:43;;;;;;;17.10;4.60;;;;;;;21.28;66.30;95597.91;5035936;28;20244;-79
2023/09/27 08:44:09;;;;;;;14.77;4.50;;;;;;;21.23;65.53;95600.50;5048746;28;20229;-79
2023/09/27 08:46:35;;;;;;;15.47;4.50;;;;;;;21.28;65.49;95599.78;5067358;28;20228;-78
2023/09/27 08:49:01;;;;;;;12.67;4.60;;;;;;;21.31;66.34;95599.25;5056215;28;20779;-79
2023/09/27 08:51:27;;;;;;;16.03;4.90;;;;;;;21.30;67.33;95593.13;5037311;28;20276;-80
2023/09/27 08:53:53;;;;;;;14.80;4.77;;;;;;;21.42;67.74;95587.69;5057280;28;20700;-80
2023/09/27 08:56:20;;;;;;;16.27;4.87;;;;;;;21.44;66.84;95588.25;5060164;28;20213;-79
2023/09/27 08:58:46;;;;;;;14.83;4.83;;;;;;;21.41;66.37;95594.06;5068873;28;20749;-79
2023/09/27 09:01:11;;;;;;;19.77;5.03;;;;;;;21.52;67.27;95582.44;5052501;28;20265;-80
2023/09/27 09:03:37;;;;;;;13.40;4.90;;;;;;;21.68;67.02;95581.56;5051280;28;20228;-79
2023/09/27 09:06:10;;;;;;;15.93;4.80;;;;;;;21.79;66.90;95583.25;5035199;28;20228;-79
2023/09/27 09:08:40;;;;;;;12.77;5.00;;;;;;;21.78;67.07;95584.28;5051441;28;20332;-79
2023/09/27 09:11:08;;;;;;;17.65;4.88;;;;;;;21.88;66.24;95587.09;5050651;28;20233;-78
2023/09/27 09:14:05;;;;;;;14.70;4.70;;;;;;;21.70;63.82;95581.28;5048561;28;20225;-79
2023/09/27 09:16:39;;;;;;;13.27;5.00;;;;;;;21.66;65.46;95583.66;5068803;28;20234;-79
2023/09/27 09:19:20;;;;;;;13.63;4.90;;;;;;;21.42;65.36;95588.47;5056577;28;20655;-79
2023/09/27 09:21:54;;;;;;;13.27;5.10;;;;;;;21.43;65.42;95586.63;5050526;28;20232;-78
2023/09/27 09:24:20;;;;;;;13.13;4.90;;;;;;;21.60;64.59;95573.19;5051702;28;20228;-79
2023/09/27 09:26:45;;;;;;;20.13;4.77;;;;;;;21.85;64.89;95584.13;5041060;28;20228;-78
2023/09/27 09:29:12;;;;;;;13.20;4.93;;;;;;;22.03;63.09;95573.09;5053670;28;20321;-78
2023/09/27 09:31:38;;;;;;;10.43;4.50;;;;;;;22.21;62.24;95572.69;5056510;28;20791;-79
2023/09/27 09:34:10;;;;;;;11.67;4.50;;;;;;;22.01;63.11;95572.53;5037848;28;20236;-79
2023/09/27 09:36:36;;;;;;;13.43;4.73;;;;;;;22.08;63.45;95571.28;5051763;28;20282;-77
2023/09/27 09:39:13;;;;;;;14.03;4.50;;;;;;;21.93;62.30;95570.31;5049634;28;20240;-79
2023/09/27 09:41:49;;;;;;;13.43;4.80;;;;;;;21.86;62.50;95556.41;5050389;28;20316;-79
2023/09/27 09:44:19;;;;;;;15.30;4.63;;;;;;;22.00;63.51;95555.72;5023590;28;20228;-79
2023/09/27 09:46:45;;;;;;;12.63;4.47;;;;;;;22.15;61.90;95565.72;5052355;28;20239;-78
2023/09/27 09:49:11;;;;;;;9.65;4.55;;;;;;;22.07;61.43;95553.66;5060106;28;20772;-80
2023/09/27 09:51:39;;;;;;;14.23;4.70;;;;;;;22.01;62.73;95562.69;5049922;28;20232;-79
2023/09/27 09:54:05;;;;;;;14.82;4.50;;;;;;;22.05;62.25;95558.44;5036759;28;20232;-79
2023/09/27 09:56:31;;;;;;;10.60;4.60;;;;;;;22.12;62.41;95558.22;5053132;28;20232;-79
2023/09/27 09:59:03;;;;;;;11.43;4.70;;;;;;;22.34;61.57;95550.09;5052987;28;20248;-79
2023/09/27 10:01:29;;;;;;;14.73;4.95;;;;;;;22.24;62.38;95550.84;5034828;28;20225;-79
2023/09/27 10:03:54;;;;;;;8.65;4.30;;;;;;;22.13;63.59;95544.66;5050873;28;20295;-79
2023/09/27 10:06:20;;;;;;;14.05;4.53;;;;;;;21.99;62.86;95542.66;5040783;28;20220;-78
2023/09/27 10:08:47;;;;;;;15.25;4.80;;;;;;;21.76;62.29;95541.09;5067936;28;20309;-79
2023/09/27 10:11:13;;;;;;;12.63;4.60;;;;;;;21.92;63.48;95536.75;5071385;28;20235;-78
2023/09/27 10:13:39;;;;;;;14.00;4.70;;;;;;;22.21;61.38;95545.22;5056613;28;20223;-79
2023/09/27 10:16:05;;;;;;;11.35;4.72;;;;;;;22.48;60.85;95544.06;5036807;28;20765;-77
2023/09/27 10:18:37;;;;;;;11.07;4.32;;;;;;;22.37;62.46;95545.06;5054192;28;20339;-80
2023/09/27 10:21:03;;;;;;;9.80;4.38;;;;;;;22.29;62.66;95539.41;5071554;28;20614;-79
2023/09/27 10:23:46;;;;;;;13.07;4.63;;;;;;;22.28;63.20;95533.28;5080862;28;20224;-78
2023/09/27 10:26:28;;;;;;;16.27;4.87;;;;;;;22.36;64.12;95531.97;5094223;28;20238;-78
2023/09/27 10:31:37;;;;;;;15.48;4.80;;;;;;;22.69;62.41;95535.13;5087490;28;20224;-78
2023/09/27 10:34:23;;;;;;;18.35;4.50;;;;;;;22.57;61.17;95523.03;5046926;28;20226;-77
2023/09/27 10:36:49;;;;;;;10.63;4.70;;;;;;;22.43;62.20;95530.69;5065830;28;20265;-78
2023/09/27 10:39:15;;;;;;;19.80;5.47;;;;;;;22.46;62.84;95521.38;5072599;28;20854;-78
2023/09/27 10:41:46;;;;;;;12.90;4.47;;;;;;;22.53;61.87;95512.06;5074368;28;20731;-78
2023/09/27 10:44:12;;;;;;;15.32;4.78;;;;;;;22.57;61.54;95518.47;5042483;28;20311;-79
2023/09/27 10:46:48;;;;;;;11.80;4.70;;;;;;;22.52;61.75;95515.00;5053470;28;20231;-77
2023/09/27 10:49:27;;;;;;;15.32;4.80;;;;;;;22.41;61.41;95519.47;5055202;28;20232;-77
2023/09/27 10:51:53;;;;;;;14.20;4.87;;;;;;;22.39;64.07;95508.25;5063366;28;20219;-78
2023/09/27 10:54:28;;;;;;;14.67;4.73;;;;;;;22.57;61.71;95518.47;5042347;28;20227;-79
2023/09/27 10:56:55;;;;;;;15.52;4.60;;;;;;;22.56;61.33;95505.41;5076972;28;20224;-79
2023/09/27 10:59:27;;;;;;;12.00;4.60;;;;;;;22.78;61.12;95500.75;5070087;28;20256;-78
2023/09/27 11:01:56;;;;;;;8.63;4.35;;;;;;;23.08;60.67;95500.84;5074807;28;20224;-79
2023/09/27 11:04:22;;;;;;;10.60;4.50;;;;;;;23.01;60.55;95500.28;5078750;28;20262;-77
2023/09/27 11:06:48;;;;;;;14.23;4.70;;;;;;;23.26;60.51;95505.69;5053358;28;20769;-78
2023/09/27 11:09:16;;;;;;;14.60;4.78;;;;;;;23.07;59.87;95498.44;5069251;28;20235;-79
2023/09/27 11:11:43;;;;;;;18.48;4.82;;;;;;;23.29;60.76;95493.66;5046011;28;20332;-78
2023/09/27 11:14:09;;;;;;;16.80;4.63;;;;;;;23.49;60.11;95488.38;5058448;28;20251;-79
2023/09/27 11:16:35;;;;;;;12.63;5.45;;;;;;;23.55;60.08;95494.56;5074160;28;20754;-77
2023/09/27 11:19:02;;;;;;;12.43;4.97;;;;;;;22.97;60.70;95485.06;5075278;28;20228;-79
2023/09/27 11:21:28;;;;;;;11.20;4.60;;;;;;;22.78;62.33;95492.75;5038939;28;20218;-78
2023/09/27 11:23:58;;;;;;;18.20;4.97;;;;;;;22.98;62.09;95491.97;5033681;28;20300;-77
2023/09/27 11:26:28;;;;;;;12.47;4.63;;;;;;;23.22;61.51;95493.13;5057365;28;20228;-78